sensor_id;sensor_type;location;lat;lon;timestamp;pressure;altitude;pressure_sealevel;temperature;humidity
7918;BME280;4004;42.624;23.386;2022-07-23T00:01:19;94436.53;;;20.24;61.44
7918;BME280;4004;42.624;23.386;2022-07-23T00:03:46;94428.53;;;20.10;61.70
7918;BME280;4004;42.624;23.386;2022-07-23T00:06:13;94443.31;;;20.13;61.71
7918;BME280;4004;42.624;23.386;2022-07-23T00:08:40;94443.34;;;20.09;62.01
7918;BME280;4004;42.624;23.386;2022-07-23T00:11:07;94438.06;;;19.95;63.62
7918;BME280;4004;42.624;23.386;2022-07-23T00:13:35;94448.63;;;19.93;64.39
7918;BME280;4004;42.624;23.386;2022-07-23T00:16:02;94446.28;;;19.91;66.03
7918;BME280;4004;42.624;23.386;2022-07-23T00:18:29;94452.38;;;19.64;69.15
7918;BME280;4004;42.624;23.386;2022-07-23T00:20:56;94439.22;;;19.56;70.63
7918;BME280;4004;42.624;23.386;2022-07-23T00:23:22;94450.97;;;19.49;72.08
7918;BME280;4004;42.624;23.386;2022-07-23T00:25:50;94456.94;;;19.37;73.58
7918;BME280;4004;42.624;23.386;2022-07-23T00:28:17;94455.47;;;19.25;74.96
7918;BME280;4004;42.624;23.386;2022-07-23T00:30:46;94456.31;;;19.18;75.89
7918;BME280;4004;42.624;23.386;2022-07-23T00:33:12;94464.56;;;19.11;74.47
7918;BME280;4004;42.624;23.386;2022-07-23T00:35:40;94461.50;;;19.05;74.37
7918;BME280;4004;42.624;23.386;2022-07-23T00:38:07;94466.50;;;19.11;73.90
7918;BME280;4004;42.624;23.386;2022-07-23T00:40:36;94463.34;;;19.16;73.59
7918;BME280;4004;42.624;23.386;2022-07-23T00:43:03;94459.50;;;19.10;74.15
7918;BME280;4004;42.624;23.386;2022-07-23T00:45:31;94463.75;;;19.14;74.78
7918;BME280;4004;42.624;23.386;2022-07-23T00:47:59;94459.84;;;19.19;75.05
7918;BME280;4004;42.624;23.386;2022-07-23T00:50:27;94459.03;;;19.22;74.97
7918;BME280;4004;42.624;23.386;2022-07-23T00:52:54;94458.19;;;19.29;74.99
7918;BME280;4004;42.624;23.386;2022-07-23T00:55:20;94449.69;;;19.19;75.64
7918;BME280;4004;42.624;23.386;2022-07-23T00:57:47;94455.84;;;19.27;76.30
7918;BME280;4004;42.624;23.386;2022-07-23T01:00:15;94456.66;;;19.28;76.61
7918;BME280;4004;42.624;23.386;2022-07-23T01:02:42;94452.88;;;19.14;77.95
7918;BME280;4004;42.624;23.386;2022-07-23T01:05:10;94458.41;;;19.00;79.18
7918;BME280;4004;42.624;23.386;2022-07-23T01:07:37;94453.41;;;18.91;79.96
7918;BME280;4004;42.624;23.386;2022-07-23T01:10:05;94455.75;;;18.89;80.68
7918;BME280;4004;42.624;23.386;2022-07-23T01:12:52;94449.94;;;18.87;80.15
7918;BME280;4004;42.624;23.386;2022-07-23T01:15:19;94452.28;;;18.85;79.22
7918;BME280;4004;42.624;23.386;2022-07-23T01:17:46;94449.06;;;19.01;77.44
7918;BME280;4004;42.624;23.386;2022-07-23T01:20:14;94447.44;;;19.07;76.41
7918;BME280;4004;42.624;23.386;2022-07-23T01:22:42;94440.09;;;19.00;74.62
7918;BME280;4004;42.624;23.386;2022-07-23T01:25:09;94443.66;;;18.97;73.70
7918;BME280;4004;42.624;23.386;2022-07-23T01:27:36;94445.53;;;19.08;72.58
7918;BME280;4004;42.624;23.386;2022-07-23T01:30:03;94443.16;;;19.10;72.07
7918;BME280;4004;42.624;23.386;2022-07-23T01:32:30;94436.97;;;19.05;72.27
7918;BME280;4004;42.624;23.386;2022-07-23T01:34:57;94437.28;;;19.15;72.54
7918;BME280;4004;42.624;23.386;2022-07-23T01:37:24;94431.47;;;19.09;72.79
7918;BME280;4004;42.624;23.386;2022-07-23T01:39:52;94433.44;;;19.09;72.71
7918;BME280;4004;42.624;23.386;2022-07-23T01:42:19;94428.75;;;19.09;73.06
7918;BME280;4004;42.624;23.386;2022-07-23T01:44:46;94431.16;;;19.03;73.24
7918;BME280;4004;42.624;23.386;2022-07-23T01:47:12;94435.84;;;18.99;73.67
7918;BME280;4004;42.624;23.386;2022-07-23T01:49:39;94432.31;;;19.02;73.09
7918;BME280;4004;42.624;23.386;2022-07-23T01:52:06;94431.53;;;19.05;72.81
7918;BME280;4004;42.624;23.386;2022-07-23T01:54:36;94432.69;;;19.04;72.89
7918;BME280;4004;42.624;23.386;2022-07-23T01:57:05;94436.91;;;19.09;73.25
7918;BME280;4004;42.624;23.386;2022-07-23T01:59:32;94443.59;;;19.04;73.76
7918;BME280;4004;42.624;23.386;2022-07-23T02:01:58;94437.81;;;18.95;74.13
7918;BME280;4004;42.624;23.386;2022-07-23T02:04:25;94439.03;;;18.87;74.94
7918;BME280;4004;42.624;23.386;2022-07-23T02:06:52;94437.47;;;18.90;75.33
7918;BME280;4004;42.624;23.386;2022-07-23T02:09:20;94438.28;;;18.83;75.95
7918;BME280;4004;42.624;23.386;2022-07-23T02:11:48;94442.19;;;18.86;75.63
7918;BME280;4004;42.624;23.386;2022-07-23T02:14:16;94434.41;;;18.84;76.13
7918;BME280;4004;42.624;23.386;2022-07-23T02:16:42;94437.50;;;18.82;76.23
7918;BME280;4004;42.624;23.386;2022-07-23T02:19:09;94443.78;;;18.79;76.34
7918;BME280;4004;42.624;23.386;2022-07-23T02:21:36;94441.84;;;18.73;76.31
7918;BME280;4004;42.624;23.386;2022-07-23T02:24:03;94443.38;;;18.74;75.72
7918;BME280;4004;42.624;23.386;2022-07-23T02:26:30;94443.44;;;18.67;76.04
7918;BME280;4004;42.624;23.386;2022-07-23T02:29:00;94436.81;;;18.68;75.86
7918;BME280;4004;42.624;23.386;2022-07-23T02:31:28;94448.44;;;18.75;75.80
7918;BME280;4004;42.624;23.386;2022-07-23T02:33:54;94443.06;;;18.64;76.23
7918;BME280;4004;42.624;23.386;2022-07-23T02:36:21;94443.06;;;18.64;76.84
7918;BME280;4004;42.624;23.386;2022-07-23T02:38:48;94440.38;;;18.61;76.79
7918;BME280;4004;42.624;23.386;2022-07-23T02:41:15;94441.91;;;18.62;76.34
7918;BME280;4004;42.624;23.386;2022-07-23T02:43:42;94444.63;;;18.66;75.90
7918;BME280;4004;42.624;23.386;2022-07-23T02:46:08;94448.59;;;18.50;77.98
7918;BME280;4004;42.624;23.386;2022-07-23T02:48:36;94436.91;;;18.50;78.15
7918;BME280;4004;42.624;23.386;2022-07-23T02:51:03;94455.91;;;18.60;76.82
7918;BME280;4004;42.624;23.386;2022-07-23T02:53:30;94453.59;;;18.59;76.28
7918;BME280;4004;42.624;23.386;2022-07-23T02:55:57;94457.06;;;18.63;76.75
7918;BME280;4004;42.624;23.386;2022-07-23T02:58:23;94460.25;;;18.54;78.44
7918;BME280;4004;42.624;23.386;2022-07-23T03:00:52;94465.75;;;18.40;79.95
7918;BME280;4004;42.624;23.386;2022-07-23T03:03:18;94462.69;;;18.34;80.77
7918;BME280;4004;42.624;23.386;2022-07-23T03:05:46;94455.72;;;18.30;81.99
7918;BME280;4004;42.624;23.386;2022-07-23T03:08:13;94467.41;;;18.19;83.47
7918;BME280;4004;42.624;23.386;2022-07-23T03:10:40;94469.38;;;18.15;84.24
7918;BME280;4004;42.624;23.386;2022-07-23T03:13:07;94467.81;;;18.14;85.42
7918;BME280;4004;42.624;23.386;2022-07-23T03:15:33;94473.66;;;18.09;86.16
7918;BME280;4004;42.624;23.386;2022-07-23T03:18:00;94476.03;;;18.00;86.98
7918;BME280;4004;42.624;23.386;2022-07-23T03:20:27;94477.59;;;17.97;88.40
7918;BME280;4004;42.624;23.386;2022-07-23T03:22:56;94466.72;;;18.01;88.16
7918;BME280;4004;42.624;23.386;2022-07-23T03:25:23;94483.75;;;18.19;86.68
7918;BME280;4004;42.624;23.386;2022-07-23T03:27:49;94479.75;;;18.38;85.60
7918;BME280;4004;42.624;23.386;2022-07-23T03:30:16;94479.66;;;18.60;84.42
7918;BME280;4004;42.624;23.386;2022-07-23T03:32:43;94481.47;;;18.84;82.33
7918;BME280;4004;42.624;23.386;2022-07-23T03:35:10;94484.16;;;18.92;82.48
7918;BME280;4004;42.624;23.386;2022-07-23T03:37:36;94484.03;;;19.10;81.14
7918;BME280;4004;42.624;23.386;2022-07-23T03:40:06;94487.78;;;19.26;80.21
7918;BME280;4004;42.624;23.386;2022-07-23T03:42:33;94493.16;;;19.41;79.30
7918;BME280;4004;42.624;23.386;2022-07-23T03:44:59;94490.72;;;19.92;76.09
7918;BME280;4004;42.624;23.386;2022-07-23T03:47:26;94491.41;;;20.34;72.39
7918;BME280;4004;42.624;23.386;2022-07-23T03:49:53;94494.25;;;20.88;69.89
7918;BME280;4004;42.624;23.386;2022-07-23T03:52:20;94488.19;;;21.55;66.37
7918;BME280;4004;42.624;23.386;2022-07-23T03:54:47;94493.63;;;22.22;63.15
7918;BME280;4004;42.624;23.386;2022-07-23T03:57:15;94505.84;;;22.57;60.50
7918;BME280;4004;42.624;23.386;2022-07-23T03:59:41;94505.53;;;22.71;60.15
7918;BME280;4004;42.624;23.386;2022-07-23T04:02:08;94502.31;;;23.13;57.13
7918;BME280;4004;42.624;23.386;2022-07-23T04:04:35;94506.84;;;23.69;54.59
7918;BME280;4004;42.624;23.386;2022-07-23T04:07:01;94499.06;;;24.42;52.13
7918;BME280;4004;42.624;23.386;2022-07-23T04:09:28;94499.28;;;24.77;50.25
7918;BME280;4004;42.624;23.386;2022-07-23T04:11:55;94494.47;;;25.45;48.22
7918;BME280;4004;42.624;23.386;2022-07-23T04:14:23;94502.53;;;25.87;47.29
7918;BME280;4004;42.624;23.386;2022-07-23T04:16:49;94511.47;;;26.48;45.37
7918;BME280;4004;42.624;23.386;2022-07-23T04:19:16;94500.06;;;26.59;44.64
7918;BME280;4004;42.624;23.386;2022-07-23T04:21:43;94505.88;;;27.14;43.57
7918;BME280;4004;42.624;23.386;2022-07-23T04:24:09;94512.00;;;27.40;42.97
7918;BME280;4004;42.624;23.386;2022-07-23T04:26:36;94516.25;;;27.73;42.16
7918;BME280;4004;42.624;23.386;2022-07-23T04:29:03;94508.94;;;28.25;40.99
7918;BME280;4004;42.624;23.386;2022-07-23T04:31:31;94506.47;;;28.36;40.58
7918;BME280;4004;42.624;23.386;2022-07-23T04:33:57;94516.19;;;29.20;39.25
7918;BME280;4004;42.624;23.386;2022-07-23T04:36:24;94519.88;;;29.60;38.34
7918;BME280;4004;42.624;23.386;2022-07-23T04:38:51;94529.31;;;30.49;36.62
7918;BME280;4004;42.624;23.386;2022-07-23T04:41:17;94533.88;;;31.36;35.59
7918;BME280;4004;42.624;23.386;2022-07-23T04:43:44;94526.75;;;32.20;34.12
7918;BME280;4004;42.624;23.386;2022-07-23T04:46:11;94530.78;;;32.40;33.37
7918;BME280;4004;42.624;23.386;2022-07-23T04:48:39;94530.00;;;32.19;33.38
7918;BME280;4004;42.624;23.386;2022-07-23T04:51:07;94533.31;;;32.17;33.48
7918;BME280;4004;42.624;23.386;2022-07-23T04:53:34;94536.91;;;31.88;33.64
7918;BME280;4004;42.624;23.386;2022-07-23T04:56:01;94535.41;;;31.22;34.71
7918;BME280;4004;42.624;23.386;2022-07-23T04:58:28;94528.16;;;30.95;35.19
7918;BME280;4004;42.624;23.386;2022-07-23T05:00:54;94535.41;;;31.07;35.16
7918;BME280;4004;42.624;23.386;2022-07-23T05:03:23;94544.50;;;31.08;35.64
7918;BME280;4004;42.624;23.386;2022-07-23T05:05:51;94545.72;;;30.77;35.79
7918;BME280;4004;42.624;23.386;2022-07-23T05:08:18;94546.53;;;31.07;34.67
7918;BME280;4004;42.624;23.386;2022-07-23T05:10:45;94540.59;;;31.29;34.41
7918;BME280;4004;42.624;23.386;2022-07-23T05:13:14;94534.22;;;31.58;33.84
7918;BME280;4004;42.624;23.386;2022-07-23T05:15:41;94546.81;;;31.89;33.59
7918;BME280;4004;42.624;23.386;2022-07-23T05:18:08;94547.00;;;31.86;33.27
7918;BME280;4004;42.624;23.386;2022-07-23T05:20:35;94545.81;;;31.92;33.13
7918;BME280;4004;42.624;23.386;2022-07-23T05:23:03;94544.88;;;32.36;32.49
7918;BME280;4004;42.624;23.386;2022-07-23T05:25:30;94543.69;;;32.63;32.38
7918;BME280;4004;42.624;23.386;2022-07-23T05:27:57;94549.72;;;33.35;31.52
7918;BME280;4004;42.624;23.386;2022-07-23T05:30:23;94549.44;;;33.33;31.44
7918;BME280;4004;42.624;23.386;2022-07-23T05:32:50;94552.38;;;33.50;31.57
7918;BME280;4004;42.624;23.386;2022-07-23T05:35:17;94555.31;;;33.67;31.40
7918;BME280;4004;42.624;23.386;2022-07-23T05:37:44;94560.88;;;34.04;30.83
7918;BME280;4004;42.624;23.386;2022-07-23T05:40:12;94562.53;;;33.84;31.12
7918;BME280;4004;42.624;23.386;2022-07-23T05:42:40;94551.88;;;33.51;31.68
7918;BME280;4004;42.624;23.386;2022-07-23T05:45:08;94554.38;;;34.24;30.78
7918;BME280;4004;42.624;23.386;2022-07-23T05:47:42;94555.25;;;34.47;30.55
7918;BME280;4004;42.624;23.386;2022-07-23T05:50:10;94552.38;;;34.30;30.54
7918;BME280;4004;42.624;23.386;2022-07-23T05:52:37;94552.16;;;34.39;30.46
7918;BME280;4004;42.624;23.386;2022-07-23T05:55:04;94554.63;;;34.92;29.72
7918;BME280;4004;42.624;23.386;2022-07-23T05:57:33;94556.75;;;35.36;29.63
7918;BME280;4004;42.624;23.386;2022-07-23T06:00:00;94558.75;;;35.41;29.38
7918;BME280;4004;42.624;23.386;2022-07-23T06:02:26;94561.31;;;35.17;29.34
7918;BME280;4004;42.624;23.386;2022-07-23T06:04:53;94556.13;;;34.76;29.96
7918;BME280;4004;42.624;23.386;2022-07-23T06:07:20;94557.03;;;34.50;30.82
7918;BME280;4004;42.624;23.386;2022-07-23T06:09:47;94556.41;;;34.95;29.73
7918;BME280;4004;42.624;23.386;2022-07-23T06:12:14;94553.41;;;35.09;29.98
7918;BME280;4004;42.624;23.386;2022-07-23T06:14:43;94554.63;;;34.97;30.06
7918;BME280;4004;42.624;23.386;2022-07-23T06:17:09;94553.81;;;34.63;30.47
7918;BME280;4004;42.624;23.386;2022-07-23T06:19:36;94547.72;;;34.64;30.97
7918;BME280;4004;42.624;23.386;2022-07-23T06:22:03;94547.75;;;34.76;30.86
7918;BME280;4004;42.624;23.386;2022-07-23T06:24:29;94550.56;;;35.04;30.38
7918;BME280;4004;42.624;23.386;2022-07-23T06:26:56;94549.03;;;34.86;30.18
7918;BME280;4004;42.624;23.386;2022-07-23T06:29:23;94551.16;;;35.14;29.49
7918;BME280;4004;42.624;23.386;2022-07-23T06:31:51;94543.28;;;35.18;29.71
7918;BME280;4004;42.624;23.386;2022-07-23T06:34:17;94548.38;;;35.42;29.50
7918;BME280;4004;42.624;23.386;2022-07-23T06:36:44;94551.38;;;35.83;28.75
7918;BME280;4004;42.624;23.386;2022-07-23T06:39:11;94550.31;;;36.15;28.27
7918;BME280;4004;42.624;23.386;2022-07-23T06:41:38;94553.88;;;36.15;28.55
7918;BME280;4004;42.624;23.386;2022-07-23T06:44:04;94549.56;;;35.97;28.30
7918;BME280;4004;42.624;23.386;2022-07-23T06:46:31;94552.41;;;35.58;29.13
7918;BME280;4004;42.624;23.386;2022-07-23T06:48:59;94546.84;;;35.35;29.51
7918;BME280;4004;42.624;23.386;2022-07-23T06:51:26;94538.13;;;34.82;29.34
7918;BME280;4004;42.624;23.386;2022-07-23T06:53:53;94533.13;;;34.38;29.72
7918;BME280;4004;42.624;23.386;2022-07-23T06:56:19;94535.84;;;34.21;30.27
7918;BME280;4004;42.624;23.386;2022-07-23T06:58:46;94538.38;;;34.13;30.35
7918;BME280;4004;42.624;23.386;2022-07-23T07:01:13;94535.19;;;33.89;30.23
7918;BME280;4004;42.624;23.386;2022-07-23T07:03:40;94535.38;;;33.48;31.24
7918;BME280;4004;42.624;23.386;2022-07-23T07:06:08;94535.19;;;33.25;31.21
7918;BME280;4004;42.624;23.386;2022-07-23T07:08:34;94539.75;;;33.22;31.60
7918;BME280;4004;42.624;23.386;2022-07-23T07:11:01;94537.44;;;32.95;32.02
7918;BME280;4004;42.624;23.386;2022-07-23T07:13:28;94529.09;;;33.21;32.01
7918;BME280;4004;42.624;23.386;2022-07-23T07:15:55;94524.34;;;33.33;31.32
7918;BME280;4004;42.624;23.386;2022-07-23T07:18:21;94526.41;;;33.64;30.80
7918;BME280;4004;42.624;23.386;2022-07-23T07:20:48;94528.84;;;33.94;30.31
7918;BME280;4004;42.624;23.386;2022-07-23T07:23:16;94522.03;;;34.00;30.00
7918;BME280;4004;42.624;23.386;2022-07-23T07:25:43;94523.19;;;34.25;30.21
7918;BME280;4004;42.624;23.386;2022-07-23T07:28:10;94519.75;;;34.59;29.64
7918;BME280;4004;42.624;23.386;2022-07-23T07:30:36;94528.47;;;34.89;29.07
7918;BME280;4004;42.624;23.386;2022-07-23T07:33:03;94523.72;;;35.40;28.51
7918;BME280;4004;42.624;23.386;2022-07-23T07:35:30;94518.31;;;35.82;27.89
7918;BME280;4004;42.624;23.386;2022-07-23T07:37:57;94525.88;;;36.15;27.43
7918;BME280;4004;42.624;23.386;2022-07-23T07:40:25;94524.13;;;35.95;27.90
7918;BME280;4004;42.624;23.386;2022-07-23T07:42:53;94514.81;;;35.42;28.58
7918;BME280;4004;42.624;23.386;2022-07-23T07:45:22;94512.00;;;35.47;27.87
7918;BME280;4004;42.624;23.386;2022-07-23T07:47:49;94514.81;;;35.36;28.53
7918;BME280;4004;42.624;23.386;2022-07-23T07:50:16;94517.59;;;35.36;28.06
7918;BME280;4004;42.624;23.386;2022-07-23T07:52:43;94519.88;;;35.32;27.91
7918;BME280;4004;42.624;23.386;2022-07-23T07:55:10;94510.19;;;34.82;28.75
7918;BME280;4004;42.624;23.386;2022-07-23T07:57:39;94509.78;;;34.41;28.93
7918;BME280;4004;42.624;23.386;2022-07-23T08:00:07;94515.56;;;34.26;29.28
7918;BME280;4004;42.624;23.386;2022-07-23T08:02:43;94503.25;;;34.61;28.52
7918;BME280;4004;42.624;23.386;2022-07-23T08:05:10;94506.28;;;34.57;28.83
7918;BME280;4004;42.624;23.386;2022-07-23T08:07:37;94503.72;;;34.48;29.19
7918;BME280;4004;42.624;23.386;2022-07-23T08:10:06;94509.28;;;34.37;28.77
7918;BME280;4004;42.624;23.386;2022-07-23T08:12:42;94502.72;;;34.51;27.99
7918;BME280;4004;42.624;23.386;2022-07-23T08:15:11;94498.66;;;34.52;27.74
7918;BME280;4004;42.624;23.386;2022-07-23T08:17:38;94501.28;;;34.67;28.19
7918;BME280;4004;42.624;23.386;2022-07-23T08:20:06;94495.16;;;34.63;28.74
7918;BME280;4004;42.624;23.386;2022-07-23T08:22:43;94497.38;;;34.42;28.99
7918;BME280;4004;42.624;23.386;2022-07-23T08:25:10;94495.56;;;34.33;29.24
7918;BME280;4004;42.624;23.386;2022-07-23T08:27:37;94496.13;;;34.49;28.38
7918;BME280;4004;42.624;23.386;2022-07-23T08:30:07;94498.44;;;34.61;28.59
7918;BME280;4004;42.624;23.386;2022-07-23T08:32:33;94498.63;;;34.41;28.80
7918;BME280;4004;42.624;23.386;2022-07-23T08:35:13;94494.84;;;33.90;29.37
7918;BME280;4004;42.624;23.386;2022-07-23T08:37:40;94490.88;;;33.59;29.54
7918;BME280;4004;42.624;23.386;2022-07-23T08:40:07;94493.19;;;33.66;29.64
7918;BME280;4004;42.624;23.386;2022-07-23T08:42:35;94486.50;;;33.52;30.41
7918;BME280;4004;42.624;23.386;2022-07-23T08:45:02;94489.53;;;33.49;30.46
7918;BME280;4004;42.624;23.386;2022-07-23T08:47:31;94491.09;;;33.55;30.38
7918;BME280;4004;42.624;23.386;2022-07-23T08:49:58;94445.78;;;33.23;30.15
7918;BME280;4004;42.624;23.386;2022-07-23T08:52:26;94493.38;;;33.57;29.87
7918;BME280;4004;42.624;23.386;2022-07-23T08:54:53;94467.88;;;33.32;29.09
7918;BME280;4004;42.624;23.386;2022-07-23T08:57:25;94473.00;;;33.08;29.38
7918;BME280;4004;42.624;23.386;2022-07-23T08:59:54;94492.94;;;33.32;29.25
7918;BME280;4004;42.624;23.386;2022-07-23T09:02:21;94471.75;;;33.46;28.95
7918;BME280;4004;42.624;23.386;2022-07-23T09:04:51;94456.69;;;33.27;30.23
7918;BME280;4004;42.624;23.386;2022-07-23T09:07:18;94487.38;;;33.32;30.12
7918;BME280;4004;42.624;23.386;2022-07-23T09:09:45;94457.59;;;32.86;30.20
7918;BME280;4004;42.624;23.386;2022-07-23T09:12:11;94481.09;;;33.06;29.56
7918;BME280;4004;42.624;23.386;2022-07-23T09:14:41;94467.50;;;33.13;28.96
7918;BME280;4004;42.624;23.386;2022-07-23T09:17:12;94436.88;;;33.19;28.38
7918;BME280;4004;42.624;23.386;2022-07-23T09:20:02;94476.25;;;33.70;28.06
7918;BME280;4004;42.624;23.386;2022-07-23T09:22:33;94477.63;;;33.97;27.66
7918;BME280;4004;42.624;23.386;2022-07-23T09:25:08;94463.41;;;33.95;27.50
7918;BME280;4004;42.624;23.386;2022-07-23T09:27:53;94470.06;;;34.03;28.30
7918;BME280;4004;42.624;23.386;2022-07-23T09:30:21;94432.59;;;33.61;28.81
7918;BME280;4004;42.624;23.386;2022-07-23T09:33:22;94463.31;;;33.72;28.35
7918;BME280;4004;42.624;23.386;2022-07-23T09:35:56;94472.97;;;33.71;27.94
7918;BME280;4004;42.624;23.386;2022-07-23T09:38:32;94432.38;;;33.70;28.01
7918;BME280;4004;42.624;23.386;2022-07-23T09:41:10;94422.97;;;33.62;27.96
7918;BME280;4004;42.624;23.386;2022-07-23T09:43:42;94452.75;;;33.88;28.33
7918;BME280;4004;42.624;23.386;2022-07-23T09:46:23;94398.78;;;33.48;28.11
7918;BME280;4004;42.624;23.386;2022-07-23T09:48:53;94437.44;;;33.66;27.95
7918;BME280;4004;42.624;23.386;2022-07-23T09:51:23;94426.19;;;33.55;27.97
7918;BME280;4004;42.624;23.386;2022-07-23T09:54:04;94440.28;;;33.34;28.39
7918;BME280;4004;42.624;23.386;2022-07-23T09:56:33;94445.47;;;33.15;27.88
7918;BME280;4004;42.624;23.386;2022-07-23T09:59:02;94445.47;;;33.15;27.56
7918;BME280;4004;42.624;23.386;2022-07-23T10:01:34;94373.69;;;32.67;27.47
7918;BME280;4004;42.624;23.386;2022-07-23T10:04:02;94423.41;;;33.12;26.88
7918;BME280;4004;42.624;23.386;2022-07-23T10:06:31;94424.91;;;33.13;26.98
7918;BME280;4004;42.624;23.386;2022-07-23T10:09:01;94443.53;;;33.27;26.94
7918;BME280;4004;42.624;23.386;2022-07-23T10:11:28;94440.41;;;33.19;26.11
7918;BME280;4004;42.624;23.386;2022-07-23T10:13:57;94433.53;;;33.15;26.88
7918;BME280;4004;42.624;23.386;2022-07-23T10:16:23;94433.28;;;33.13;27.67
7918;BME280;4004;42.624;23.386;2022-07-23T10:18:51;94427.97;;;33.15;27.61
7918;BME280;4004;42.624;23.386;2022-07-23T10:21:24;94430.09;;;33.26;26.69
7918;BME280;4004;42.624;23.386;2022-07-23T10:24:10;94426.81;;;33.33;25.88
7918;BME280;4004;42.624;23.386;2022-07-23T10:26:45;94425.69;;;33.51;25.73
7918;BME280;4004;42.624;23.386;2022-07-23T10:29:26;94419.38;;;33.56;25.84
7918;BME280;4004;42.624;23.386;2022-07-23T10:32:02;94423.25;;;33.64;25.58
7918;BME280;4004;42.624;23.386;2022-07-23T10:34:41;94420.19;;;33.62;25.14
7918;BME280;4004;42.624;23.386;2022-07-23T10:37:14;94416.13;;;33.63;24.81
7918;BME280;4004;42.624;23.386;2022-07-23T10:39:47;94416.66;;;33.67;24.52
7918;BME280;4004;42.624;23.386;2022-07-23T10:42:15;94402.13;;;33.52;23.96
7918;BME280;4004;42.624;23.386;2022-07-23T10:44:43;94407.28;;;33.64;23.90
7918;BME280;4004;42.624;23.386;2022-07-23T10:47:11;94403.75;;;33.64;23.91
7918;BME280;4004;42.624;23.386;2022-07-23T10:50:16;94399.41;;;33.63;23.98
7918;BME280;4004;42.624;23.386;2022-07-23T10:53:16;94392.31;;;33.62;22.86
7918;BME280;4004;42.624;23.386;2022-07-23T10:55:47;94395.16;;;33.73;22.50
7918;BME280;4004;42.624;23.386;2022-07-23T10:58:19;94389.53;;;33.68;22.11
7918;BME280;4004;42.624;23.386;2022-07-23T11:00:46;94389.31;;;33.71;22.28
7918;BME280;4004;42.624;23.386;2022-07-23T11:03:33;94376.66;;;33.76;21.86
7918;BME280;4004;42.624;23.386;2022-07-23T11:06:03;94380.19;;;33.76;21.79
7918;BME280;4004;42.624;23.386;2022-07-23T11:08:32;94352.00;;;33.63;21.38
7918;BME280;4004;42.624;23.386;2022-07-23T11:11:10;94367.00;;;33.77;19.72
7918;BME280;4004;42.624;23.386;2022-07-23T11:13:44;94380.50;;;33.90;18.58
7918;BME280;4004;42.624;23.386;2022-07-23T11:16:20;94377.22;;;33.97;18.77
7918;BME280;4004;42.624;23.386;2022-07-23T11:19:07;94372.66;;;33.94;19.04
7918;BME280;4004;42.624;23.386;2022-07-23T11:21:45;94364.47;;;33.79;20.16
7918;BME280;4004;42.624;23.386;2022-07-23T11:24:15;94369.06;;;33.82;20.20
7918;BME280;4004;42.624;23.386;2022-07-23T11:26:49;94357.66;;;33.85;20.40
7918;BME280;4004;42.624;23.386;2022-07-23T11:32:31;94356.56;;;33.66;18.92
7918;BME280;4004;42.624;23.386;2022-07-23T11:35:00;94360.16;;;33.67;19.55
7918;BME280;4004;42.624;23.386;2022-07-23T11:37:36;94350.53;;;33.73;20.06
7918;BME280;4004;42.624;23.386;2022-07-23T11:40:06;94346.69;;;33.65;20.17
7918;BME280;4004;42.624;23.386;2022-07-23T11:42:36;94351.28;;;33.79;19.12
7918;BME280;4004;42.624;23.386;2022-07-23T11:45:05;94341.19;;;33.82;19.38
7918;BME280;4004;42.624;23.386;2022-07-23T11:47:32;94351.81;;;33.83;18.93
7918;BME280;4004;42.624;23.386;2022-07-23T11:50:01;94353.84;;;33.83;18.69
7918;BME280;4004;42.624;23.386;2022-07-23T11:52:28;94339.44;;;33.96;19.10
7918;BME280;4004;42.624;23.386;2022-07-23T11:54:57;94336.47;;;34.16;18.82
7918;BME280;4004;42.624;23.386;2022-07-23T11:57:26;94347.13;;;34.23;18.86
7918;BME280;4004;42.624;23.386;2022-07-23T11:59:58;94334.44;;;34.28;18.85
7918;BME280;4004;42.624;23.386;2022-07-23T12:02:27;94331.91;;;34.41;17.87
7918;BME280;4004;42.624;23.386;2022-07-23T12:04:54;94319.72;;;34.28;17.74
7918;BME280;4004;42.624;23.386;2022-07-23T12:07:39;94341.56;;;34.46;17.51
7918;BME280;4004;42.624;23.386;2022-07-23T12:10:12;94331.66;;;34.45;17.45
7918;BME280;4004;42.624;23.386;2022-07-23T12:12:41;94297.16;;;34.14;17.87
7918;BME280;4004;42.624;23.386;2022-07-23T12:15:11;94328.38;;;34.35;17.90
7918;BME280;4004;42.624;23.386;2022-07-23T12:17:40;94320.75;;;34.41;17.69
7918;BME280;4004;42.624;23.386;2022-07-23T12:20:10;94322.78;;;34.52;18.21
7918;BME280;4004;42.624;23.386;2022-07-23T12:22:39;94320.00;;;34.63;18.45
7918;BME280;4004;42.624;23.386;2022-07-23T12:25:08;94322.78;;;34.58;18.54
7918;BME280;4004;42.624;23.386;2022-07-23T12:27:36;94304.00;;;34.58;18.03
7918;BME280;4004;42.624;23.386;2022-07-23T12:30:19;94311.13;;;34.71;17.85
7918;BME280;4004;42.624;23.386;2022-07-23T12:32:47;94311.88;;;34.60;18.49
7918;BME280;4004;42.624;23.386;2022-07-23T12:35:15;94317.72;;;34.56;17.96
7918;BME280;4004;42.624;23.386;2022-07-23T12:37:43;94310.84;;;34.57;18.58
7918;BME280;4004;42.624;23.386;2022-07-23T12:40:25;94304.28;;;34.72;17.51
7918;BME280;4004;42.624;23.386;2022-07-23T12:42:54;94305.31;;;34.69;17.65
7918;BME280;4004;42.624;23.386;2022-07-23T12:45:22;94291.34;;;34.63;17.79
7918;BME280;4004;42.624;23.386;2022-07-23T12:47:54;94306.56;;;34.67;17.53
7918;BME280;4004;42.624;23.386;2022-07-23T12:50:32;94296.38;;;34.59;17.06
7918;BME280;4004;42.624;23.386;2022-07-23T12:53:07;94294.88;;;34.69;17.33
7918;BME280;4004;42.624;23.386;2022-07-23T12:55:34;94288.28;;;34.72;17.04
7918;BME280;4004;42.624;23.386;2022-07-23T12:58:06;94290.03;;;34.81;16.71
7918;BME280;4004;42.624;23.386;2022-07-23T13:03:32;94290.03;;;34.81;16.54
7918;BME280;4004;42.624;23.386;2022-07-23T13:05:59;94284.44;;;34.81;16.71
7918;BME280;4004;42.624;23.386;2022-07-23T13:08:28;94288.03;;;34.76;16.89
7918;BME280;4004;42.624;23.386;2022-07-23T13:10:55;94287.03;;;34.62;17.05
7918;BME280;4004;42.624;23.386;2022-07-23T13:13:23;94284.44;;;34.53;17.22
7918;BME280;4004;42.624;23.386;2022-07-23T13:15:50;94285.72;;;34.52;16.12
7918;BME280;4004;42.624;23.386;2022-07-23T13:18:18;94286.75;;;34.43;16.58
7918;BME280;4004;42.624;23.386;2022-07-23T13:20:48;94281.19;;;34.49;16.97
7918;BME280;4004;42.624;23.386;2022-07-23T13:23:15;94281.66;;;34.58;16.10
7918;BME280;4004;42.624;23.386;2022-07-23T13:25:42;94282.97;;;34.69;15.93